AirNav   Pilot Hours Calculator
 
 993 users online  

2AL1 Collier Airpark
Magnolia Springs, Alabama, USA

GOING TO MAGNOLIA SPRINGS?


FAA INFORMATION EFFECTIVE 16 JUNE 2022

Location

FAA Identifier: 2AL1
Lat/Long: 30-25-26.7100N 087-46-39.9610W
30-25.445167N 087-46.666017W
30.4240861,-87.7777669
(estimated)
Elevation: 74 ft. / 23 m (estimated)
Variation: 01E (1990)
From city: 1 mile N of MAGNOLIA SPRINGS, AL
Time zone: UTC -5 (UTC -6 during Standard Time)
Zip code: 36535

Airport Operations

Airport use: Private use. Permission required prior to landing
Activation date: 10/1993
Control tower: no
ARTCC: HOUSTON CENTER
FSS: ANNISTON FLIGHT SERVICE STATION
Attendance: IREG
Wind indicator: yes
Segmented circle: no
Lights: ACTVT LIRL RWY 15/33 - CTAF.

Airport Communications

CTAF: 122.9
WX AWOS-3PT at CQF (6 nm NW): 118.425 (251-928-3242)
WX AWOS-3PT at JKA (10 nm SE): PHONE 251-923-5615
WX ASOS at BFM (19 nm NW): PHONE 251-431-6762

Airport Services

Runway Information

Runway 15/33

Dimensions: 2900 x 100 ft. / 884 x 30 m
Surface: turf
Runway edge lights: low intensity
RUNWAY 15  RUNWAY 33
Traffic pattern: leftleft
Obstructions: none15 ft. road, 225 ft. from runway

Airport Ownership and Management from official FAA records

Ownership: Privately-owned
Owner: COLLIER ARPT HOMEOWNERS ASSOC
P.O. BOX 86
MAGNOLIA SPRINGS, AL 36555
Phone 251-377-2003
Manager: BOARD OF DIRECTORS
P.O.BOX 86
MAGNOLIA SPRINGS, AL 36555
Phone 251-377-2003

Airport Operational Statistics

Aircraft based on the field: 21
Single engine airplanes: 15
Helicopters: 2
Ultralights: 4
    
Aircraft operations: avg 29/month
100% local general aviation

Additional Remarks

PRIOR PERMISSION REQUIRED TO LAND AND TAKE-OFF.
AT ANY OF THE ENDS THE RUNWAY CAN RETAIN WATER ON ITS SURFACE AFTER MODERATE TO HEAVY RAINFALLS. THIS CAN MAKE THE RUNWAY HAZARDOUS FOR TAKE-OFF AND LANDINGS.
PILOTS ARE RESPONSIBLE FOR THE SAFE OPERATION OF THEIR AIRCRAFT AND ANY PROPERTY DAMAGE THAT MAY OCCUR TO THE TAXIWAYS AND THE RUNWAY.
USE CAUTION: HELICOPTER OPERATIONS AT THE SOUTH END OF THE AIRPORT.
FOR CD CTC MOBILE APCH AT 251-662-6236, WHEN APCH CLSD CTC HOUSTON ARTCC AT 281-230-5622.

Instrument Procedures

There are no published instrument procedures at 2AL1.

Some nearby airports with instrument procedures:

5R4 - Foley Municipal Airport (4 nm E)
KCQF - H L Sonny Callahan Airport (6 nm NW)
KJKA - Gulf Shores International Airport/Jack Edwards Field (10 nm SE)
KBFM - Mobile International Airport (19 nm NW)
KNPA - Pensacola Naval Air Station/Forrest Sherman Field (24 nm E)
 
Loc | Ops | Rwys | IFR | FBO | Links
Com | Nav | Svcs | Stats | Notes
Area around 2AL1 (Collier Airpark)
 
Road maps at: MapQuest Bing Google
 
Aerial photo
WARNING: Photo may not be current or correct
Aerial photo of 2AL1 (Collier Airpark)
Photo by Mark Peterson
Taken in the Summer of 2014
looking northwest.

Do you have a better or more recent aerial photo of Collier Airpark that you would like to share? If so, please send us your photo.

 
Sectional chart

 
Airport distance calculator
Flying to Collier Airpark? Find the distance to fly.

From to 2AL1

Sunrise and sunset
Times for 02-Jul-2022
 Local
(UTC-5)
 Zulu
(UTC)
Morning civil twilight05:2610:26
Sunrise05:5410:54
Sunset19:5600:56
Evening civil twilight20:2401:24

Current date and time
Zulu (UTC)  02-Jul-2022 23:40:32
Local (UTC-5)  02-Jul-2022 18:40:32
 
METAR
KCQF 
6nm NW 
022315Z AUTO 00000KT 10SM CLR 27/23 A3002 RMK AO2
KJKA 
10nm SE 
022256Z 14003KT 10SM FEW020 28/26 A3001
KBFM 
19nm NW 
022253Z 00000KT 10SM CLR 29/24 A3004 RMK AO2 SLP170 T02890239
TAF
KBFM 
19nm NW 
021739Z 0218/0318 17007KT P6SM VCTS SCT025CB BKN100 FM030000 19005KT P6SM SCT025 BKN100 FM030900 00000KT P6SM FEW030 SCT250 FM031300 12003KT P6SM VCTS SCT021CB BKN100
NOTAMs
Click for the latest NOTAMs
NOTAMs are issued by the DoD/FAA and will open in a separate window not controlled by AirNav.

 

 
 

Would you like to see your business listed on this page?

 If your business provides an interesting product or service to pilots, flight crews, aircraft, or users of the Collier Airpark, you should consider listing it here.  To start the listing process, click on the button below
 
Add a business
 

Other Pages about Collier Airpark

Update a link
 
Copyright © AirNav, LLC. All rights reserved. Privacy Policy  Contact